createdAt,value
2018-04-06T00:01:44.428Z,2.47
2018-04-06T00:04:47.693Z,3.40
2018-04-06T00:07:51.699Z,2.47
2018-04-06T00:10:54.977Z,3.53
2018-04-06T00:13:58.258Z,0.90
2018-04-06T00:17:01.888Z,2.73
2018-04-06T00:20:05.418Z,2.03
2018-04-06T00:23:09.414Z,3.50
2018-04-06T00:26:13.438Z,2.30
2018-04-06T00:29:17.455Z,0.97
2018-04-06T00:32:21.465Z,3.33
2018-04-06T00:35:25.482Z,2.70
2018-04-06T00:38:30.220Z,2.55
2018-04-06T00:41:34.243Z,1.80
2018-04-06T00:44:37.507Z,1.77
2018-04-06T00:47:40.784Z,2.17
2018-04-06T00:50:44.066Z,1.37
2018-04-06T00:53:48.229Z,1.43
2018-04-06T00:56:52.398Z,2.53
2018-04-06T00:59:55.654Z,2.53
2018-04-06T01:02:59.659Z,2.00
2018-04-06T01:06:02.927Z,3.07
2018-04-06T01:09:07.107Z,1.87
2018-04-06T01:12:10.369Z,1.20
2018-04-06T01:15:13.623Z,2.67
2018-04-06T01:18:16.878Z,1.90
2018-04-06T01:21:20.891Z,1.47
2018-04-06T01:24:24.919Z,1.40
2018-04-06T01:31:01.602Z,2.13
2018-04-06T01:34:05.623Z,1.20
2018-04-06T01:37:09.636Z,1.60
2018-04-06T01:40:13.657Z,2.80
2018-04-06T01:43:17.161Z,1.67
2018-04-06T01:46:21.351Z,1.53
2018-04-06T01:49:24.603Z,0.90
2018-04-06T01:52:27.859Z,1.53
2018-04-06T01:55:31.876Z,2.57
2018-04-06T01:58:35.887Z,3.30
2018-04-06T02:01:39.895Z,3.47
2018-04-06T02:04:43.158Z,11.07
2018-04-06T02:07:46.410Z,14.20
2018-04-06T02:10:49.680Z,4.25
2018-04-06T02:13:52.960Z,4.23
2018-04-06T02:16:56.209Z,1.90
2018-04-06T02:19:59.472Z,2.92
2018-04-06T02:23:02.734Z,1.27
2018-04-06T02:26:05.993Z,1.43
2018-04-06T02:29:10.051Z,2.93
2018-04-06T02:32:13.308Z,1.67
2018-04-06T02:35:16.611Z,3.17
2018-04-06T02:38:19.853Z,2.50
2018-04-06T02:41:23.124Z,1.20
2018-04-06T02:44:26.367Z,2.80
2018-04-06T02:47:29.622Z,2.47
2018-04-06T02:50:32.865Z,1.73
2018-04-06T02:53:36.192Z,2.63
2018-04-06T02:56:40.219Z,1.63
2018-04-06T02:59:43.472Z,1.10
2018-04-06T03:02:46.704Z,1.50
2018-04-06T03:05:50.272Z,1.60
2018-04-06T03:08:53.523Z,1.48
2018-04-06T03:11:56.770Z,3.50
2018-04-06T03:15:00.795Z,1.50
2018-04-06T03:18:04.798Z,1.20
2018-04-06T03:21:08.051Z,1.30
2018-04-06T03:24:11.307Z,1.60
2018-04-06T03:27:15.318Z,2.80
2018-04-06T03:30:19.341Z,1.58
2018-04-06T03:33:23.345Z,1.20
2018-04-06T03:36:27.370Z,1.48
2018-04-06T03:39:31.375Z,1.42
2018-04-06T03:42:35.393Z,1.30
2018-04-06T03:45:39.425Z,2.85
2018-04-06T03:48:42.675Z,2.67
2018-04-06T03:51:45.939Z,7.80
2018-04-06T03:54:49.224Z,6.40
2018-04-06T03:57:52.495Z,6.70
2018-04-06T04:00:56.620Z,2.57
2018-04-06T04:04:00.749Z,2.47
2018-04-06T04:07:04.325Z,1.53
2018-04-06T04:10:08.367Z,1.98
2018-04-06T04:13:11.618Z,2.57
2018-04-06T04:16:14.872Z,2.30
2018-04-06T04:19:18.111Z,2.17
2018-04-06T04:22:21.363Z,2.40
2018-04-06T04:25:24.648Z,1.45
2018-04-06T04:28:27.894Z,3.83
2018-04-06T04:31:31.146Z,2.00
2018-04-06T04:34:34.410Z,1.90
2018-04-06T04:37:40.985Z,2.53
2018-04-06T04:40:45.043Z,5.00
2018-04-06T04:43:48.324Z,2.00
2018-04-06T04:46:51.590Z,3.77
2018-04-06T04:49:54.827Z,6.20
2018-04-06T04:52:58.091Z,4.10
2018-04-06T04:56:01.350Z,2.57
2018-04-06T04:59:04.596Z,1.90
2018-04-06T05:02:08.625Z,4.27
2018-04-06T05:05:12.138Z,9.10
2018-04-06T05:08:15.439Z,4.97
2018-04-06T05:11:18.695Z,5.65
2018-04-06T05:14:21.965Z,6.07
2018-04-06T05:17:25.228Z,5.80
2018-04-06T05:20:28.501Z,6.67
2018-04-06T05:23:32.512Z,6.93
2018-04-06T05:26:36.646Z,1.80
2018-04-06T05:29:39.896Z,5.13
2018-04-06T05:32:43.138Z,4.87
2018-04-06T05:35:46.396Z,3.13
2018-04-06T05:38:49.778Z,2.47
2018-04-06T05:41:53.117Z,3.13
2018-04-06T05:44:57.144Z,2.67
2018-04-06T05:48:00.404Z,3.80
2018-04-06T05:51:03.674Z,1.80
2018-04-06T05:54:06.920Z,6.43
2018-04-06T05:57:10.932Z,1.93
2018-04-06T06:00:14.949Z,2.40
2018-04-06T06:03:18.221Z,5.47
2018-04-06T06:06:21.562Z,5.50
2018-04-06T06:09:26.728Z,4.17
2018-04-06T06:12:30.194Z,3.93
2018-04-06T06:15:34.216Z,3.50
2018-04-06T06:18:37.468Z,4.80
2018-04-06T06:21:40.717Z,4.73
2018-04-06T06:24:43.974Z,5.17
2018-04-06T06:27:47.226Z,3.93
2018-04-06T06:30:50.798Z,4.93
2018-04-06T06:33:54.055Z,2.87
2018-04-06T06:36:57.303Z,4.70
2018-04-06T06:40:01.317Z,5.33
2018-04-06T06:43:05.350Z,5.30
2018-04-06T06:46:09.556Z,4.37
2018-04-06T06:49:13.579Z,4.63
2018-04-06T06:52:17.782Z,6.33
2018-04-06T06:55:21.046Z,8.53
2018-04-06T06:58:24.327Z,5.50
2018-04-06T07:01:27.691Z,7.20
2018-04-06T07:04:31.712Z,8.47
2018-04-06T07:07:35.866Z,5.53
2018-04-06T07:10:39.126Z,8.90
2018-04-06T07:13:42.601Z,8.03
2018-04-06T07:16:48.582Z,10.03
2018-04-06T07:19:52.586Z,6.37
2018-04-06T07:22:55.936Z,11.50
2018-04-06T07:25:59.198Z,7.47
2018-04-06T07:29:03.265Z,8.80
2018-04-06T07:32:06.614Z,7.70
2018-04-06T07:35:09.980Z,7.43
2018-04-06T07:38:13.242Z,8.70
2018-04-06T07:41:16.537Z,5.27
2018-04-06T07:44:19.814Z,8.47
2018-04-06T07:47:24.239Z,9.40
2018-04-06T07:50:28.245Z,8.23
2018-04-06T07:53:32.469Z,16.73
2018-04-06T07:56:36.481Z,9.37
2018-04-06T07:59:40.498Z,8.20
2018-04-06T08:02:44.657Z,6.43
2018-04-06T08:05:47.969Z,6.68
2018-04-06T08:08:51.246Z,10.33
2018-04-06T08:11:54.778Z,6.63
2018-04-06T08:14:58.032Z,6.67
2018-04-06T08:18:01.281Z,5.83
2018-04-06T08:21:05.299Z,6.73
2018-04-06T08:24:08.558Z,9.13
2018-04-06T08:27:11.926Z,8.30
2018-04-06T08:30:16.083Z,7.10
2018-04-06T08:33:20.033Z,7.43
2018-04-06T08:36:23.373Z,7.03
2018-04-06T08:39:27.142Z,8.67
2018-04-06T08:42:30.774Z,8.50
2018-04-06T08:45:35.047Z,8.40
2018-04-06T08:48:38.413Z,7.63
2018-04-06T08:51:41.792Z,8.50
2018-04-06T08:54:45.405Z,8.63
2018-04-06T08:57:48.619Z,10.97
2018-04-06T09:00:52.198Z,7.90
2018-04-06T09:03:55.802Z,12.27
2018-04-06T09:06:59.130Z,8.97
2018-04-06T09:10:02.401Z,8.80
2018-04-06T09:13:06.003Z,7.80
2018-04-06T09:16:10.037Z,9.03
2018-04-06T09:19:13.295Z,5.67
2018-04-06T09:22:17.335Z,8.57
2018-04-06T09:25:20.887Z,7.97
2018-04-06T09:28:24.336Z,7.90
2018-04-06T09:31:27.546Z,8.50
2018-04-06T09:34:30.843Z,7.32
2018-04-06T09:37:35.119Z,8.90
2018-04-06T09:40:38.633Z,7.17
2018-04-06T09:43:41.908Z,9.33
2018-04-06T09:46:45.166Z,6.43
2018-04-06T09:49:48.494Z,10.57
2018-04-06T09:52:51.775Z,8.53
2018-04-06T09:55:55.048Z,8.67
2018-04-06T09:58:58.433Z,8.50
2018-04-06T10:02:07.362Z,8.60
2018-04-06T10:05:12.295Z,8.27
2018-04-06T10:08:15.600Z,6.00
2018-04-06T10:11:18.874Z,7.60
2018-04-06T10:14:22.138Z,6.80
2018-04-06T10:17:25.457Z,8.37
2018-04-06T10:20:29.572Z,7.07
2018-04-06T10:23:53.689Z,6.47
2018-04-06T10:26:58.241Z,6.97
2018-04-06T10:30:01.518Z,6.07
2018-04-06T10:33:05.624Z,5.27
2018-04-06T10:36:10.012Z,4.57
2018-04-06T10:39:13.701Z,6.73
2018-04-06T10:42:16.979Z,5.20
2018-04-06T10:45:20.275Z,5.53
2018-04-06T10:48:23.534Z,4.77
2018-04-06T10:51:26.899Z,4.40
2018-04-06T10:54:30.155Z,4.67
2018-04-06T10:57:34.257Z,5.97
2018-04-06T11:00:38.591Z,5.87
2018-04-06T11:03:42.627Z,4.43
2018-04-06T11:06:45.934Z,4.23
2018-04-06T11:09:49.240Z,7.43
2018-04-06T11:12:52.491Z,3.87
2018-04-06T11:15:56.540Z,5.13
2018-04-06T11:18:59.803Z,5.87
2018-04-06T11:22:03.855Z,5.83
2018-04-06T11:25:07.194Z,5.70
2018-04-06T11:28:10.485Z,6.17
2018-04-06T11:31:13.816Z,3.20
2018-04-06T11:34:17.935Z,6.45
2018-04-06T11:37:21.259Z,6.30
2018-04-06T11:40:24.847Z,4.60
2018-04-06T11:43:28.207Z,3.60
2018-04-06T11:46:31.472Z,5.83
2018-04-06T11:49:34.869Z,3.40
2018-04-06T11:52:38.172Z,3.90
2018-04-06T11:55:51.476Z,2.67
2018-04-06T11:59:00.008Z,6.83
2018-04-06T12:02:03.659Z,3.73
2018-04-06T12:05:14.206Z,4.77
2018-04-06T12:08:17.708Z,7.00
2018-04-06T12:11:21.023Z,4.10
2018-04-06T12:14:24.390Z,6.00
2018-04-06T12:17:27.654Z,6.23
2018-04-06T12:20:31.155Z,7.13
2018-04-06T12:23:34.463Z,5.67
2018-04-06T12:26:38.155Z,3.13
2018-04-06T12:29:42.197Z,6.40
2018-04-06T12:32:45.444Z,3.47
2018-04-06T12:35:48.716Z,4.83
2018-04-06T12:38:52.158Z,6.60
2018-04-06T12:41:56.166Z,5.17
2018-04-06T12:44:59.460Z,4.60
2018-04-06T12:48:02.748Z,4.37
2018-04-06T12:51:06.008Z,4.22
2018-04-06T12:54:09.270Z,5.73
2018-04-06T12:57:13.290Z,5.20
2018-04-06T13:00:17.320Z,7.27
2018-04-06T13:03:20.594Z,5.73
2018-04-06T13:06:24.615Z,5.07
2018-04-06T13:09:29.381Z,3.17
2018-04-06T13:12:32.633Z,4.00
2018-04-06T13:15:36.664Z,3.57
2018-04-06T13:18:39.947Z,5.37
2018-04-06T13:21:43.962Z,6.47
2018-04-06T13:24:47.428Z,5.43
2018-04-06T13:27:55.972Z,4.23
2018-04-06T13:31:00.378Z,3.87
2018-04-06T13:34:03.749Z,5.17
2018-04-06T13:37:07.166Z,5.33
2018-04-06T13:40:10.593Z,5.53
2018-04-06T13:43:14.059Z,7.73
2018-04-06T13:46:17.357Z,4.40
2018-04-06T13:49:20.652Z,4.93
2018-04-06T13:52:24.233Z,5.20
2018-04-06T13:55:27.538Z,5.47
2018-04-06T13:58:31.642Z,7.47
2018-04-06T14:01:35.702Z,6.20
2018-04-06T14:04:39.024Z,6.73
2018-04-06T14:07:42.764Z,5.23
2018-04-06T14:10:46.863Z,5.07
2018-04-06T14:13:50.297Z,5.73
2018-04-06T14:16:54.408Z,5.63
2018-04-06T14:19:59.136Z,6.03
2018-04-06T14:23:03.323Z,4.33
2018-04-06T14:26:07.005Z,7.10
2018-04-06T14:29:10.317Z,7.17
2018-04-06T14:32:13.883Z,4.90
2018-04-06T14:35:17.151Z,8.97
2018-04-06T14:38:20.429Z,6.60
2018-04-06T14:41:23.703Z,5.60
2018-04-06T14:44:27.013Z,7.03
2018-04-06T14:47:30.274Z,4.90
2018-04-06T14:50:33.543Z,6.22
2018-04-06T14:53:36.884Z,4.80
2018-04-06T14:56:40.223Z,12.33
2018-04-06T14:59:43.855Z,6.13
2018-04-06T15:02:47.898Z,8.13
2018-04-06T15:05:51.342Z,5.40
2018-04-06T15:08:54.630Z,4.73
2018-04-06T15:11:57.950Z,5.63
2018-04-06T15:15:02.246Z,6.70
2018-04-06T15:18:05.620Z,6.40
2018-04-06T15:21:08.915Z,5.00
2018-04-06T15:24:12.253Z,5.50
2018-04-06T15:27:15.527Z,9.00
2018-04-06T15:30:18.866Z,6.37
2018-04-06T15:33:22.914Z,6.37
2018-04-06T15:36:26.830Z,9.05
2018-04-06T15:39:30.192Z,7.60
2018-04-06T15:42:34.365Z,5.00
2018-04-06T15:45:37.655Z,6.63
2018-04-06T15:48:40.998Z,5.70
2018-04-06T15:51:44.265Z,9.80
2018-04-06T15:54:47.795Z,6.63
2018-04-06T15:57:51.120Z,5.07
2018-04-06T16:00:54.523Z,4.43
2018-04-06T16:03:57.933Z,8.63
2018-04-06T16:07:01.191Z,6.90
2018-04-06T16:10:04.506Z,6.23
2018-04-06T16:13:07.787Z,7.07
2018-04-06T16:16:12.069Z,5.28
2018-04-06T16:19:15.497Z,9.93
2018-04-06T16:22:18.775Z,6.40
2018-04-06T16:25:22.132Z,6.23
2018-04-06T16:28:26.271Z,7.60
2018-04-06T16:31:29.731Z,7.43
2018-04-06T16:34:33.024Z,7.85
2018-04-06T16:37:36.455Z,6.00
2018-04-06T16:40:39.768Z,5.17
2018-04-06T16:43:43.147Z,5.68
2018-04-06T16:46:47.238Z,7.93
2018-04-06T16:49:50.803Z,7.93
2018-04-06T16:52:54.099Z,5.60
2018-04-06T16:55:57.742Z,6.30
2018-04-06T16:59:01.180Z,7.50
2018-04-06T17:02:05.232Z,6.17
2018-04-06T17:05:08.518Z,4.93
2018-04-06T17:08:11.881Z,8.80
2018-04-06T17:11:16.022Z,7.55
2018-04-06T17:14:19.308Z,6.60
2018-04-06T17:17:23.849Z,8.90
2018-04-06T17:20:27.129Z,10.13
2018-04-06T17:23:31.191Z,5.40
2018-04-06T17:26:34.460Z,5.43
2018-04-06T17:29:37.747Z,7.47
2018-04-06T17:32:41.784Z,6.70
2018-04-06T17:35:45.131Z,6.03
2018-04-06T17:38:48.426Z,4.97
2018-04-06T17:41:52.785Z,8.47
2018-04-06T17:44:56.151Z,6.45
2018-04-06T17:47:59.413Z,7.17
2018-04-06T17:51:02.692Z,6.87
2018-04-06T17:54:05.957Z,6.33
2018-04-06T17:57:09.228Z,6.57
2018-04-06T18:00:12.511Z,5.50
2018-04-06T18:03:15.766Z,7.13
2018-04-06T18:06:20.054Z,6.57
2018-04-06T18:09:24.090Z,6.67
2018-04-06T18:12:28.243Z,7.90
2018-04-06T18:15:31.517Z,5.50
2018-04-06T18:18:35.569Z,6.47
2018-04-06T18:21:38.836Z,9.20
2018-04-06T18:24:42.132Z,8.65
2018-04-06T18:27:46.263Z,6.90
2018-04-06T18:30:50.383Z,8.30
2018-04-06T18:33:53.619Z,5.40
2018-04-06T18:36:56.876Z,8.33
2018-04-06T18:40:00.119Z,9.35
2018-04-06T18:43:03.367Z,7.00
2018-04-06T18:46:06.865Z,10.57
2018-04-06T18:49:10.155Z,7.75
2018-04-06T18:52:13.551Z,4.83
2018-04-06T18:55:18.415Z,7.67
2018-04-06T18:58:21.666Z,8.03
2018-04-06T19:01:24.933Z,11.40
2018-04-06T19:04:28.208Z,9.40
2018-04-06T19:07:31.705Z,6.17
2018-04-06T19:10:34.959Z,7.37
2018-04-06T19:13:38.974Z,6.40
2018-04-06T19:16:42.995Z,7.27
2018-04-06T19:19:47.050Z,5.60
2018-04-06T19:22:50.480Z,7.90
2018-04-06T19:25:53.727Z,7.97
2018-04-06T19:28:56.995Z,7.03
2018-04-06T19:32:00.713Z,9.80
2018-04-06T19:35:04.739Z,10.33
2018-04-06T19:38:08.128Z,7.73
2018-04-06T19:41:12.276Z,8.67
2018-04-06T19:44:15.763Z,8.90
2018-04-06T19:47:19.012Z,6.87
2018-04-06T19:50:22.297Z,9.23
2018-04-06T19:53:26.375Z,9.20
2018-04-06T19:56:29.616Z,8.20
2018-04-06T19:59:32.880Z,8.23
2018-04-06T20:02:36.124Z,9.20
2018-04-06T20:05:39.374Z,9.00
2018-04-06T20:08:42.627Z,8.03
2018-04-06T20:11:45.882Z,7.87
2018-04-06T20:14:49.160Z,11.25
2018-04-06T20:17:52.426Z,8.83
2018-04-06T20:20:55.675Z,9.67
2018-04-06T20:23:58.950Z,8.07
2018-04-06T20:27:02.242Z,8.40
2018-04-06T20:30:05.512Z,10.47
2018-04-06T20:33:08.784Z,10.03
2018-04-06T20:36:12.032Z,8.90
2018-04-06T20:39:17.376Z,10.83
2018-04-06T20:42:21.458Z,10.97
2018-04-06T20:45:24.711Z,8.63
2018-04-06T20:48:27.998Z,8.20
2018-04-06T20:51:31.243Z,8.97
2018-04-06T20:54:34.559Z,9.60
2018-04-06T20:57:37.851Z,10.47
2018-04-06T21:00:41.124Z,10.03
2018-04-06T21:03:45.030Z,8.77
2018-04-06T21:06:48.333Z,10.20
2018-04-06T21:09:51.602Z,11.43
2018-04-06T21:12:54.972Z,9.97
2018-04-06T21:16:01.436Z,9.15
2018-04-06T21:19:05.251Z,6.90
2018-04-06T21:22:09.279Z,7.50
2018-04-06T21:25:18.560Z,8.48
2018-04-06T21:28:22.430Z,9.30
2018-04-06T21:31:26.448Z,8.35
2018-04-06T21:34:29.703Z,8.70
2018-04-06T21:37:32.970Z,8.33
2018-04-06T21:40:36.489Z,8.80
2018-04-06T21:43:40.703Z,9.53
2018-04-06T21:46:43.944Z,10.30
2018-04-06T21:49:48.119Z,9.13
2018-04-06T21:52:52.390Z,9.87
2018-04-06T21:56:02.106Z,7.03
2018-04-06T21:59:11.606Z,8.60
2018-04-06T22:02:15.018Z,8.43
2018-04-06T22:05:18.334Z,9.65
2018-04-06T22:08:21.615Z,7.10
2018-04-06T22:11:24.888Z,7.73
2018-04-06T22:14:28.199Z,9.27
2018-04-06T22:17:31.485Z,7.67
2018-04-06T22:20:37.363Z,13.63
2018-04-06T22:23:41.091Z,9.77
2018-04-06T22:26:44.394Z,8.47
2018-04-06T22:29:47.692Z,7.87
2018-04-06T22:32:51.773Z,7.83
2018-04-06T22:35:55.420Z,8.27
2018-04-06T22:39:00.248Z,6.60
2018-04-06T22:42:04.812Z,8.57
2018-04-06T22:45:08.068Z,9.80
2018-04-06T22:48:11.324Z,10.53
2018-04-06T22:51:16.406Z,8.93
2018-04-06T22:54:19.654Z,9.10
2018-04-06T22:57:23.771Z,9.93
2018-04-06T23:00:27.796Z,8.43
2018-04-06T23:03:31.850Z,7.20
2018-04-06T23:06:35.098Z,8.20
2018-04-06T23:09:39.117Z,8.63
2018-04-06T23:12:43.133Z,9.07
2018-04-06T23:15:47.254Z,9.02
2018-04-06T23:18:50.519Z,7.43
2018-04-06T23:22:02.439Z,6.97
2018-04-06T23:25:06.125Z,7.53
2018-04-06T23:28:10.168Z,7.33
2018-04-06T23:31:14.195Z,9.65
2018-04-06T23:34:17.450Z,8.53
2018-04-06T23:37:20.703Z,10.30
2018-04-06T23:40:23.947Z,7.30
2018-04-06T23:43:27.313Z,8.43
2018-04-06T23:46:30.571Z,11.50
2018-04-06T23:49:34.603Z,8.30
2018-04-06T23:52:37.878Z,8.73
2018-04-06T23:55:41.148Z,8.43
2018-04-06T23:58:44.464Z,6.47
